createdAt,value
2018-11-05T00:01:30.302Z,36.20
2018-11-05T00:03:59.093Z,33.90
2018-11-05T00:06:27.819Z,35.17
2018-11-05T00:08:56.578Z,36.13
2018-11-05T00:11:25.322Z,35.10
2018-11-05T00:13:54.065Z,35.63
2018-11-05T00:16:22.794Z,34.73
2018-11-05T00:18:51.629Z,36.53
2018-11-05T00:21:20.346Z,35.23
2018-11-05T00:23:49.095Z,36.97
2018-11-05T00:26:17.860Z,34.63
2018-11-05T00:28:46.648Z,35.17
2018-11-05T00:31:15.349Z,34.80
2018-11-05T00:33:44.124Z,36.73
2018-11-05T00:36:12.892Z,37.10
2018-11-05T00:38:41.606Z,35.73
2018-11-05T00:41:10.366Z,36.40
2018-11-05T00:43:39.154Z,37.00
2018-11-05T00:46:08.110Z,34.53
2018-11-05T00:48:36.846Z,36.67
2018-11-05T00:51:05.604Z,36.40
2018-11-05T00:53:34.352Z,37.03
2018-11-05T00:56:03.067Z,37.07
2018-11-05T00:58:31.795Z,36.03
2018-11-05T01:01:00.518Z,35.70
2018-11-05T01:03:29.261Z,36.47
2018-11-05T01:05:58.015Z,36.40
2018-11-05T01:08:26.725Z,37.40
2018-11-05T01:10:55.477Z,37.40
2018-11-05T01:13:24.227Z,36.40
2018-11-05T01:15:52.959Z,38.77
2018-11-05T01:18:21.686Z,38.07
2018-11-05T01:20:50.397Z,38.93
2018-11-05T01:23:19.321Z,37.97
2018-11-05T01:25:48.053Z,38.07
2018-11-05T01:28:16.779Z,37.67
2018-11-05T01:30:45.534Z,38.33
2018-11-05T01:33:14.261Z,37.43
2018-11-05T01:35:42.985Z,39.47
2018-11-05T01:38:11.716Z,38.17
2018-11-05T01:40:40.495Z,38.77
2018-11-05T01:43:09.213Z,39.67
2018-11-05T01:45:37.951Z,39.50
2018-11-05T01:48:06.755Z,39.33
2018-11-05T01:50:35.516Z,39.83
2018-11-05T01:53:04.290Z,40.03
2018-11-05T01:55:33.803Z,39.33
2018-11-05T01:58:02.541Z,38.80
2018-11-05T02:00:31.269Z,38.13
2018-11-05T02:02:59.994Z,39.17
2018-11-05T02:05:28.733Z,39.87
2018-11-05T02:07:57.463Z,40.47
2018-11-05T02:10:26.326Z,39.57
2018-11-05T02:12:54.951Z,38.97
2018-11-05T02:15:23.737Z,37.77
2018-11-05T02:17:52.489Z,36.93
2018-11-05T02:20:21.194Z,36.73
2018-11-05T02:22:49.955Z,38.73
2018-11-05T02:25:18.794Z,38.63
2018-11-05T02:27:47.584Z,40.13
2018-11-05T02:30:18.419Z,39.57
2018-11-05T02:32:47.668Z,37.83
2018-11-05T02:35:17.317Z,38.17
2018-11-05T02:37:46.673Z,37.83
2018-11-05T02:40:16.706Z,36.87
2018-11-05T02:42:45.875Z,38.03
2018-11-05T02:45:15.594Z,38.10
2018-11-05T02:47:44.344Z,37.77
2018-11-05T02:50:13.789Z,37.60
2018-11-05T02:52:43.498Z,36.43
2018-11-05T02:55:12.258Z,36.90
2018-11-05T02:57:41.004Z,37.53
2018-11-05T03:00:13.811Z,36.93
2018-11-05T03:02:42.643Z,37.63
2018-11-05T03:05:12.988Z,39.27
2018-11-05T03:07:42.076Z,39.07
2018-11-05T03:10:11.718Z,37.37
2018-11-05T03:12:41.093Z,37.47
2018-11-05T03:15:11.509Z,38.17
2018-11-05T03:17:40.243Z,38.10
2018-11-05T03:20:10.112Z,37.87
2018-11-05T03:22:39.497Z,35.80
2018-11-05T03:25:08.519Z,36.00
2018-11-05T03:27:37.683Z,37.40
2018-11-05T03:30:09.169Z,34.80
2018-11-05T03:32:37.931Z,35.90
2018-11-05T03:35:07.553Z,36.43
2018-11-05T03:37:36.298Z,36.87
2018-11-05T03:40:05.691Z,37.43
2018-11-05T03:42:34.414Z,35.97
2018-11-05T03:45:03.142Z,35.07
2018-11-05T03:47:31.867Z,34.70
2018-11-05T03:50:00.643Z,35.77
2018-11-05T03:52:29.448Z,35.47
2018-11-05T03:54:58.191Z,33.80
2018-11-05T03:57:26.965Z,32.50
2018-11-05T03:59:55.692Z,33.80
2018-11-05T04:02:24.518Z,35.63
2018-11-05T04:04:53.254Z,33.83
2018-11-05T04:07:21.981Z,36.53
2018-11-05T04:09:50.757Z,34.67
2018-11-05T04:12:19.507Z,35.43
2018-11-05T04:14:48.202Z,34.00
2018-11-05T04:17:17.131Z,33.97
2018-11-05T04:19:45.834Z,34.70
2018-11-05T04:22:14.578Z,33.13
2018-11-05T04:24:43.267Z,34.03
2018-11-05T04:27:12.015Z,33.40
2018-11-05T04:29:40.711Z,34.10
2018-11-05T04:32:09.420Z,32.37
2018-11-05T04:34:38.128Z,31.20
2018-11-05T04:37:06.871Z,33.80
2018-11-05T04:39:35.571Z,34.03
2018-11-05T04:42:04.331Z,32.97
2018-11-05T04:44:33.030Z,34.50
2018-11-05T04:47:01.755Z,33.67
2018-11-05T04:49:30.455Z,34.60
2018-11-05T04:51:59.234Z,32.60
2018-11-05T04:54:27.951Z,34.57
2018-11-05T04:56:56.681Z,33.93
2018-11-05T04:59:25.399Z,32.93
2018-11-05T05:01:54.157Z,33.93
2018-11-05T05:04:22.849Z,34.10
2018-11-05T05:06:51.649Z,33.63
2018-11-05T05:09:20.357Z,33.23
2018-11-05T05:11:49.096Z,32.13
2018-11-05T05:14:17.905Z,33.70
2018-11-05T05:16:46.613Z,34.43
2018-11-05T05:19:15.387Z,34.17
2018-11-05T05:21:44.097Z,33.00
2018-11-05T05:24:13.246Z,33.67
2018-11-05T05:26:41.951Z,34.40
2018-11-05T05:29:11.040Z,32.90
2018-11-05T05:31:39.751Z,32.73
2018-11-05T05:34:08.492Z,34.17
2018-11-05T05:36:37.214Z,35.10
2018-11-05T05:39:07.482Z,34.03
2018-11-05T05:41:36.191Z,34.77
2018-11-05T05:44:04.956Z,33.13
2018-11-05T05:46:33.673Z,33.30
2018-11-05T05:49:02.431Z,32.63
2018-11-05T05:51:31.206Z,34.10
2018-11-05T05:53:59.964Z,33.20
2018-11-05T05:56:28.694Z,34.47
2018-11-05T05:58:57.421Z,31.87
2018-11-05T06:01:26.180Z,33.30
2018-11-05T06:03:55.070Z,31.30
2018-11-05T06:06:23.911Z,32.13
2018-11-05T06:08:52.644Z,33.20
2018-11-05T06:11:21.588Z,31.23
2018-11-05T06:13:50.354Z,32.53
2018-11-05T06:16:19.125Z,32.97
2018-11-05T06:18:47.844Z,33.17
2018-11-05T06:21:16.568Z,31.50
2018-11-05T06:23:45.537Z,29.80
2018-11-05T06:26:14.286Z,31.33
2018-11-05T06:28:43.169Z,32.17
2018-11-05T06:31:11.867Z,30.03
2018-11-05T06:33:40.699Z,32.30
2018-11-05T06:36:09.437Z,30.20
2018-11-05T06:38:38.320Z,32.30
2018-11-05T06:41:07.760Z,31.87
2018-11-05T06:43:36.474Z,33.10
2018-11-05T06:46:05.596Z,31.50
2018-11-05T06:48:34.406Z,32.10
2018-11-05T06:51:03.213Z,32.27
2018-11-05T06:53:32.186Z,33.17
2018-11-05T06:56:00.989Z,30.67
2018-11-05T06:58:29.764Z,31.33
2018-11-05T07:00:58.528Z,31.60
2018-11-05T07:03:27.743Z,31.93
2018-11-05T07:05:56.712Z,32.07
2018-11-05T07:08:25.375Z,32.10
2018-11-05T07:10:54.174Z,31.13
2018-11-05T07:13:23.051Z,33.10
2018-11-05T07:15:51.801Z,33.13
2018-11-05T07:18:20.575Z,31.93
2018-11-05T07:20:49.443Z,32.03
2018-11-05T07:23:18.283Z,32.77
2018-11-05T07:25:47.041Z,32.13
2018-11-05T07:28:15.856Z,31.93
2018-11-05T07:30:44.881Z,32.83
2018-11-05T07:33:14.210Z,31.10
2018-11-05T07:35:43.256Z,31.73
2018-11-05T07:38:12.106Z,32.33
2018-11-05T07:40:40.890Z,31.53
2018-11-05T07:43:09.662Z,32.67
2018-11-05T07:45:38.404Z,32.83
2018-11-05T07:48:07.162Z,32.87
2018-11-05T07:50:35.985Z,31.33
2018-11-05T07:53:05.372Z,30.60
2018-11-05T07:55:34.328Z,31.43
2018-11-05T07:58:03.046Z,31.73
2018-11-05T08:00:37.114Z,30.87
2018-11-05T08:03:06.313Z,32.10
2018-11-05T08:05:35.064Z,31.37
2018-11-05T08:08:04.038Z,30.23
2018-11-05T08:10:32.820Z,29.70
2018-11-05T08:13:08.392Z,30.57
2018-11-05T08:15:37.153Z,30.77
2018-11-05T08:18:06.000Z,30.90
2018-11-05T08:20:34.728Z,31.43
2018-11-05T08:23:03.503Z,31.07
2018-11-05T08:25:32.315Z,30.73
2018-11-05T08:28:01.042Z,31.37
2018-11-05T08:30:29.809Z,30.13
2018-11-05T08:32:58.767Z,31.13
2018-11-05T08:35:27.560Z,31.67
2018-11-05T08:37:56.328Z,29.60
2018-11-05T08:40:26.988Z,30.40
2018-11-05T08:42:56.522Z,31.23
2018-11-05T08:45:26.668Z,30.73
2018-11-05T08:47:55.483Z,32.03
2018-11-05T08:50:24.774Z,30.33
2018-11-05T08:52:53.820Z,28.97
2018-11-05T08:55:23.870Z,29.07
2018-11-05T08:57:52.665Z,30.10
2018-11-05T09:00:26.889Z,30.77
2018-11-05T09:02:56.123Z,30.30
2018-11-05T09:05:25.168Z,29.53
2018-11-05T09:07:54.769Z,30.93
2018-11-05T09:10:23.763Z,30.00
2018-11-05T09:12:52.326Z,28.83
2018-11-05T09:15:21.941Z,29.53
2018-11-05T09:17:50.903Z,28.70
2018-11-05T09:20:20.122Z,29.67
2018-11-05T09:22:49.857Z,27.87
2018-11-05T09:25:18.662Z,30.37
2018-11-05T09:27:47.567Z,28.43
2018-11-05T09:30:18.591Z,29.13
2018-11-05T09:32:47.664Z,30.43
2018-11-05T09:35:16.726Z,28.83
2018-11-05T09:37:45.666Z,28.33
2018-11-05T09:40:17.814Z,28.90
2018-11-05T09:42:47.185Z,28.57
2018-11-05T09:45:18.316Z,27.77
2018-11-05T09:47:47.502Z,27.73
2018-11-05T09:50:17.005Z,28.40
2018-11-05T09:52:45.778Z,27.97
2018-11-05T09:55:15.078Z,26.13
2018-11-05T09:57:43.986Z,27.47
2018-11-05T10:00:14.909Z,29.77
2018-11-05T10:02:49.118Z,26.77
2018-11-05T10:05:18.334Z,27.27
2018-11-05T10:07:47.214Z,26.70
2018-11-05T10:10:16.829Z,26.57
2018-11-05T10:12:45.602Z,25.93
2018-11-05T10:15:15.418Z,27.53
2018-11-05T10:17:44.652Z,26.07
2018-11-05T10:20:15.751Z,25.43
2018-11-05T10:22:45.041Z,26.70
2018-11-05T10:25:14.458Z,27.10
2018-11-05T10:27:43.122Z,26.30
2018-11-05T10:30:15.623Z,25.33
2018-11-05T10:32:44.886Z,24.90
2018-11-05T10:35:14.471Z,26.17
2018-11-05T10:37:43.277Z,25.57
2018-11-05T10:40:15.111Z,26.03
2018-11-05T10:42:44.966Z,25.17
2018-11-05T10:45:15.081Z,25.40
2018-11-05T10:47:43.838Z,25.33
2018-11-05T10:50:13.759Z,26.17
2018-11-05T10:52:43.128Z,24.17
2018-11-05T10:55:11.983Z,24.73
2018-11-05T10:57:41.439Z,24.50
2018-11-05T11:00:21.476Z,24.77
2018-11-05T11:02:55.807Z,24.73
2018-11-05T11:05:25.309Z,23.57
2018-11-05T11:07:55.181Z,23.10
2018-11-05T11:10:25.124Z,23.70
2018-11-05T11:12:53.917Z,25.47
2018-11-05T11:15:23.097Z,24.57
2018-11-05T11:17:52.201Z,25.17
2018-11-05T11:20:20.910Z,24.63
2018-11-05T11:22:49.685Z,24.67
2018-11-05T11:25:18.436Z,24.47
2018-11-05T11:27:47.285Z,23.90
2018-11-05T11:30:16.836Z,23.77
2018-11-05T11:32:46.257Z,25.23
2018-11-05T11:35:15.121Z,23.57
2018-11-05T11:37:43.870Z,22.90
2018-11-05T11:40:15.304Z,25.93
2018-11-05T11:42:45.012Z,23.17
2018-11-05T11:45:14.602Z,23.80
2018-11-05T11:47:43.374Z,24.40
2018-11-05T11:50:14.752Z,23.53
2018-11-05T11:52:43.589Z,23.77
2018-11-05T11:55:16.076Z,21.87
2018-11-05T11:57:44.882Z,24.70
2018-11-05T12:00:19.123Z,21.57
2018-11-05T12:02:48.418Z,23.47
2018-11-05T12:05:17.336Z,24.20
2018-11-05T12:07:46.137Z,23.07
2018-11-05T12:10:18.745Z,24.13
2018-11-05T12:12:47.506Z,22.40
2018-11-05T12:15:17.304Z,22.83
2018-11-05T12:17:47.019Z,23.63
2018-11-05T12:20:17.153Z,23.77
2018-11-05T12:22:46.621Z,23.43
2018-11-05T12:25:15.391Z,24.00
2018-11-05T12:27:44.150Z,23.40
2018-11-05T12:30:15.327Z,22.43
2018-11-05T12:32:45.293Z,22.33
2018-11-05T12:35:14.279Z,22.67
2018-11-05T12:37:44.235Z,24.53
2018-11-05T12:40:14.787Z,22.50
2018-11-05T12:42:44.684Z,22.70
2018-11-05T12:45:13.582Z,22.47
2018-11-05T12:47:42.380Z,22.70
2018-11-05T12:50:14.053Z,22.27
2018-11-05T12:52:43.617Z,23.57
2018-11-05T12:55:12.466Z,22.97
2018-11-05T12:57:41.305Z,23.87
2018-11-05T13:00:13.837Z,21.40
2018-11-05T13:02:42.771Z,22.97
2018-11-05T13:05:12.738Z,22.53
2018-11-05T13:07:41.728Z,22.67
2018-11-05T13:10:12.630Z,21.87
2018-11-05T13:12:41.621Z,22.67
2018-11-05T13:15:11.032Z,22.30
2018-11-05T13:17:40.461Z,21.70
2018-11-05T13:20:13.692Z,21.80
2018-11-05T13:22:43.547Z,21.27
2018-11-05T13:25:12.545Z,20.57
2018-11-05T13:27:42.886Z,20.77
2018-11-05T13:30:12.398Z,21.67
2018-11-05T13:32:41.550Z,20.20
2018-11-05T13:35:13.660Z,20.83
2018-11-05T13:37:43.176Z,21.70
2018-11-05T13:40:14.704Z,20.93
2018-11-05T13:42:43.760Z,20.80
2018-11-05T13:45:13.526Z,22.03
2018-11-05T13:47:42.936Z,20.80
2018-11-05T13:50:12.433Z,22.00
2018-11-05T13:52:41.215Z,21.67
2018-11-05T13:55:12.248Z,22.10
2018-11-05T13:57:41.788Z,21.07
2018-11-05T14:00:12.468Z,20.40
2018-11-05T14:02:41.290Z,20.23
2018-11-05T14:05:10.764Z,20.77
2018-11-05T14:07:39.651Z,21.23
2018-11-05T14:10:12.874Z,21.77
2018-11-05T14:12:42.336Z,20.93
2018-11-05T14:15:11.074Z,20.63
2018-11-05T14:17:40.530Z,20.93
2018-11-05T14:20:10.364Z,21.17
2018-11-05T14:22:39.093Z,20.50
2018-11-05T14:25:09.673Z,20.97
2018-11-05T14:27:38.583Z,20.50
2018-11-05T14:30:08.517Z,21.47
2018-11-05T14:32:37.283Z,19.67
2018-11-05T14:35:06.304Z,19.63
2018-11-05T14:37:35.160Z,20.30
2018-11-05T14:40:04.439Z,20.27
2018-11-05T14:42:33.354Z,20.20
2018-11-05T14:45:02.109Z,19.77
2018-11-05T14:47:31.000Z,20.93
2018-11-05T14:49:59.720Z,20.23
2018-11-05T14:52:28.466Z,20.07
2018-11-05T14:54:57.236Z,20.67
2018-11-05T14:57:26.008Z,18.57
2018-11-05T14:59:54.754Z,19.13
2018-11-05T15:02:29.062Z,19.03
2018-11-05T15:04:58.008Z,18.27
2018-11-05T15:07:26.807Z,18.97
2018-11-05T15:09:55.522Z,19.40
2018-11-05T15:12:24.274Z,19.33
2018-11-05T15:14:52.998Z,18.43
2018-11-05T15:17:21.761Z,20.53
2018-11-05T15:19:50.770Z,19.87
2018-11-05T15:22:19.376Z,18.60
2018-11-05T15:24:48.131Z,18.63
2018-11-05T15:27:16.976Z,18.70
2018-11-05T15:29:45.723Z,19.13
2018-11-05T15:32:14.484Z,18.43
2018-11-05T15:34:43.263Z,18.27
2018-11-05T15:37:12.394Z,19.40
2018-11-05T15:39:41.407Z,18.47
2018-11-05T15:42:10.613Z,18.13
2018-11-05T15:44:39.664Z,18.50
2018-11-05T15:47:08.617Z,18.63
2018-11-05T15:49:37.329Z,18.53
2018-11-05T15:52:06.895Z,19.20
2018-11-05T15:54:35.649Z,19.63
2018-11-05T15:57:04.345Z,18.73
2018-11-05T15:59:33.145Z,18.07
2018-11-05T16:02:07.308Z,19.47
2018-11-05T16:04:36.159Z,20.70
2018-11-05T16:07:05.083Z,20.10
2018-11-05T16:09:34.040Z,20.37
2018-11-05T16:12:02.767Z,20.13
2018-11-05T16:14:31.615Z,20.40
2018-11-05T16:17:00.534Z,21.17
2018-11-05T16:19:29.541Z,22.10
2018-11-05T16:21:58.751Z,20.93
2018-11-05T16:24:28.030Z,22.33
2018-11-05T16:26:57.229Z,20.53
2018-11-05T16:29:25.985Z,21.40
2018-11-05T16:31:54.869Z,23.43
2018-11-05T16:34:23.617Z,21.27
2018-11-05T16:36:52.412Z,22.63
2018-11-05T16:39:21.201Z,22.70
2018-11-05T16:41:50.010Z,22.23
2018-11-05T16:44:19.098Z,22.23
2018-11-05T16:46:47.859Z,21.97
2018-11-05T16:49:16.657Z,22.27
2018-11-05T16:51:45.420Z,22.20
2018-11-05T16:54:14.230Z,21.53
2018-11-05T16:56:43.012Z,21.93
2018-11-05T16:59:11.790Z,21.13
2018-11-05T17:01:40.776Z,21.37
2018-11-05T17:04:09.293Z,22.03
2018-11-05T17:06:38.101Z,22.30
2018-11-05T17:09:08.200Z,22.67
2018-11-05T17:11:36.988Z,22.50
2018-11-05T17:14:06.146Z,22.97
2018-11-05T17:16:34.815Z,23.47
2018-11-05T17:19:03.671Z,22.30
2018-11-05T17:21:32.612Z,23.73
2018-11-05T17:24:01.358Z,23.30
2018-11-05T17:26:30.465Z,22.37
2018-11-05T17:28:59.258Z,23.07
2018-11-05T17:31:28.206Z,21.37
2018-11-05T17:33:57.078Z,21.93
2018-11-05T17:36:25.832Z,20.73
2018-11-05T17:38:54.547Z,21.80
2018-11-05T17:41:23.298Z,20.63
2018-11-05T17:43:52.044Z,21.90
2018-11-05T17:46:20.888Z,21.10
2018-11-05T17:48:49.635Z,21.57
2018-11-05T17:51:19.573Z,22.03
2018-11-05T17:53:48.794Z,21.30
2018-11-05T17:56:17.576Z,22.50
2018-11-05T17:58:46.289Z,21.37
2018-11-05T18:01:15.007Z,21.10
2018-11-05T18:03:43.826Z,21.70
2018-11-05T18:06:12.622Z,20.70
2018-11-05T18:08:41.416Z,21.67
2018-11-05T18:11:10.187Z,20.70
2018-11-05T18:13:38.917Z,20.13
2018-11-05T18:16:07.647Z,21.07
2018-11-05T18:18:36.801Z,19.93
2018-11-05T18:21:05.831Z,19.73
2018-11-05T18:23:34.544Z,20.53
2018-11-05T18:26:03.270Z,19.07
2018-11-05T18:28:32.063Z,19.67
2018-11-05T18:31:00.898Z,19.30
2018-11-05T18:33:29.591Z,18.77
2018-11-05T18:36:03.297Z,19.00
2018-11-05T18:38:32.057Z,17.73
2018-11-05T18:41:00.792Z,19.00
2018-11-05T18:43:29.540Z,18.90
2018-11-05T18:45:58.284Z,17.83
2018-11-05T18:48:27.073Z,19.53
2018-11-05T18:50:55.817Z,18.17
2018-11-05T18:53:24.595Z,19.23
2018-11-05T18:55:53.333Z,17.03
2018-11-05T18:58:22.108Z,17.57
2018-11-05T19:00:50.856Z,16.70
2018-11-05T19:03:19.787Z,16.33
2018-11-05T19:05:48.409Z,16.93
2018-11-05T19:08:17.211Z,16.53
2018-11-05T19:10:45.946Z,18.20
2018-11-05T19:13:14.743Z,17.50
2018-11-05T19:15:43.533Z,18.50
2018-11-05T19:18:12.326Z,18.00
2018-11-05T19:20:41.097Z,18.07
2018-11-05T19:23:09.868Z,17.63
2018-11-05T19:25:38.550Z,16.67
2018-11-05T19:28:07.306Z,16.33
2018-11-05T19:30:36.020Z,17.77
2018-11-05T19:33:05.167Z,16.57
2018-11-05T19:35:33.878Z,16.70
2018-11-05T19:38:02.635Z,16.73
2018-11-05T19:40:31.374Z,16.00
2018-11-05T19:43:00.153Z,16.77
2018-11-05T19:45:28.900Z,16.00
2018-11-05T19:47:58.016Z,18.33
2018-11-05T19:50:26.926Z,17.47
2018-11-05T19:52:55.950Z,17.47
2018-11-05T19:55:24.695Z,19.20
2018-11-05T19:57:53.814Z,17.03
2018-11-05T20:00:25.825Z,17.63
2018-11-05T20:02:54.982Z,17.57
2018-11-05T20:05:23.811Z,16.73
2018-11-05T20:07:53.248Z,15.63
2018-11-05T20:10:21.969Z,15.53
2018-11-05T20:12:50.769Z,16.50
2018-11-05T20:15:19.589Z,15.90
2018-11-05T20:17:49.477Z,17.53
2018-11-05T20:20:19.641Z,17.50
2018-11-05T20:22:48.446Z,16.13
2018-11-05T20:25:17.164Z,16.63
2018-11-05T20:27:45.925Z,15.20
2018-11-05T20:30:17.132Z,15.33
2018-11-05T20:32:47.010Z,15.57
2018-11-05T20:35:15.669Z,18.60
2018-11-05T20:37:44.446Z,17.23
2018-11-05T20:40:14.528Z,20.37
2018-11-05T20:42:44.391Z,17.13
2018-11-05T20:45:13.562Z,18.13
2018-11-05T20:47:42.716Z,20.30
2018-11-05T20:50:12.322Z,23.03
2018-11-05T20:52:41.105Z,19.27
2018-11-05T20:55:11.078Z,18.93
2018-11-05T20:57:40.278Z,16.67
2018-11-05T21:00:10.564Z,15.70
2018-11-05T21:02:40.029Z,14.57
2018-11-05T21:05:08.797Z,13.57
2018-11-05T21:07:37.797Z,14.30
2018-11-05T21:10:08.162Z,13.77
2018-11-05T21:12:37.108Z,14.30
2018-11-05T21:15:06.836Z,15.13
2018-11-05T21:17:35.580Z,14.13
2018-11-05T21:20:04.266Z,15.10
2018-11-05T21:22:33.209Z,13.13
2018-11-05T21:25:01.835Z,13.83
2018-11-05T21:27:30.625Z,14.13
2018-11-05T21:29:59.359Z,13.87
2018-11-05T21:32:28.079Z,12.70
2018-11-05T21:34:56.890Z,13.67
2018-11-05T21:37:25.631Z,13.03
2018-11-05T21:39:54.375Z,12.90
2018-11-05T21:42:23.196Z,13.10
2018-11-05T21:44:51.974Z,12.43
2018-11-05T21:47:21.013Z,12.17
2018-11-05T21:49:49.721Z,11.37
2018-11-05T21:52:18.454Z,12.30
2018-11-05T21:54:47.219Z,11.23
2018-11-05T21:57:16.151Z,11.60
2018-11-05T21:59:44.928Z,11.23
2018-11-05T22:02:14.009Z,10.60
2018-11-05T22:04:42.752Z,10.63
2018-11-05T22:07:11.524Z,10.90
2018-11-05T22:09:40.433Z,11.23
2018-11-05T22:12:09.309Z,10.60
2018-11-05T22:14:38.213Z,10.60
2018-11-05T22:17:07.223Z,10.73
2018-11-05T22:19:35.973Z,10.33
2018-11-05T22:22:05.141Z,10.47
2018-11-05T22:24:33.891Z,11.30
2018-11-05T22:27:02.657Z,11.17
2018-11-05T22:29:31.402Z,10.93
2018-11-05T22:32:00.146Z,10.40
2018-11-05T22:34:28.862Z,9.57
2018-11-05T22:36:57.612Z,9.77
2018-11-05T22:39:26.407Z,9.63
2018-11-05T22:41:55.240Z,9.17
2018-11-05T22:44:23.963Z,9.17
2018-11-05T22:46:52.759Z,9.10
2018-11-05T22:49:21.467Z,9.13
2018-11-05T22:51:50.228Z,9.63
2018-11-05T22:54:19.147Z,8.37
2018-11-05T22:56:47.892Z,8.90
2018-11-05T22:59:16.692Z,9.10
2018-11-05T23:39:11.056Z,8.77
2018-11-05T23:41:40.004Z,9.40
2018-11-05T23:44:08.803Z,8.50
2018-11-05T23:46:37.583Z,8.70
2018-11-05T23:49:06.471Z,9.23
2018-11-05T23:51:35.413Z,8.47
2018-11-05T23:54:04.578Z,8.83
2018-11-05T23:56:33.512Z,8.13
2018-11-05T23:59:02.261Z,8.27
